NWS308 UNOO-ULLI
Flight info
| Callsign | NWS308 |
|---|---|
| Flight time | 3h 21m |
| Altitude | 36000 |
| Route | BUNET5D BUNET B236 LUKAS A305 TINRI N987 GIKES P982 ANDAT M60 APSAS L259 PRIBI P979 BEPOL BEPOL1V |
| Aircraft | B738/M-SDE2E3FGHIRWXY/LB1 |
Departure
| Time | 2026-04-23 16:33 |
|---|---|
| Airport | Omsk Central Airport (UNOO) |
Arrival
| Time | 2026-04-23 19:54 |
|---|---|
| Airport | Pulkovo Airport (ULLI) |
| Time | Latitude | Longitude | Altitude | Speed | Heading |
|---|---|---|---|---|---|
| 2026-04-23 16:25 | 54.96328 | 73.31998 | 290 ft | 0 kts | 137° |
| 2026-04-23 16:27 | 54.96327 | 73.31998 | 290 ft | 0 kts | 137° |
| 2026-04-23 16:29 | 54.96327 | 73.31999 | 290 ft | 0 kts | 135° |
| 2026-04-23 16:29 | 54.96312 | 73.32024 | 290 ft | 8 kts | 135° |
| 2026-04-23 16:30 | 54.96305 | 73.32126 | 288 ft | 10 kts | 51° |
| 2026-04-23 16:30 | 54.96370 | 73.32215 | 287 ft | 12 kts | 32° |
| 2026-04-23 16:30 | 54.96455 | 73.32248 | 287 ft | 12 kts | 38° |
| 2026-04-23 16:30 | 54.96482 | 73.32381 | 287 ft | 12 kts | 78° |
| 2026-04-23 16:31 | 54.96511 | 73.32595 | 287 ft | 21 kts | 76° |
| 2026-04-23 16:31 | 54.96545 | 73.32840 | 287 ft | 20 kts | 76° |
| 2026-04-23 16:31 | 54.96579 | 73.33032 | 287 ft | 12 kts | 47° |
| 2026-04-23 16:31 | 54.96662 | 73.33031 | 287 ft | 12 kts | 346° |
| 2026-04-23 16:32 | 54.96767 | 73.32989 | 285 ft | 18 kts | 346° |
| 2026-04-23 16:32 | 54.96894 | 73.32935 | 283 ft | 19 kts | 345° |
| 2026-04-23 16:32 | 54.96957 | 73.32867 | 284 ft | 7 kts | 273° |
| 2026-04-23 16:32 | 54.96942 | 73.32767 | 286 ft | 15 kts | 251° |
| 2026-04-23 16:33 | 54.96851 | 73.32056 | 287 ft | 106 kts | 258° |
| 2026-04-23 16:33 | 54.96630 | 73.30375 | 549 ft | 162 kts | 258° |
| 2026-04-23 16:33 | 54.96373 | 73.28502 | 1605 ft | 167 kts | 259° |
| 2026-04-23 16:33 | 54.96124 | 73.26462 | 2369 ft | 182 kts | 260° |
| 2026-04-23 16:34 | 54.95844 | 73.24249 | 3118 ft | 197 kts | 259° |
| 2026-04-23 16:34 | 54.95545 | 73.21915 | 3915 ft | 209 kts | 259° |
| 2026-04-23 16:34 | 54.95197 | 73.19418 | 4719 ft | 221 kts | 258° |
| 2026-04-23 16:34 | 54.94825 | 73.16803 | 5609 ft | 228 kts | 258° |
| 2026-04-23 16:35 | 54.94463 | 73.14185 | 6679 ft | 227 kts | 258° |
| 2026-04-23 16:35 | 54.94102 | 73.11523 | 7646 ft | 229 kts | 258° |
| 2026-04-23 16:35 | 54.92452 | 72.99357 | 11609 ft | 231 kts | 258° |
| 2026-04-23 16:35 | 54.92104 | 72.94724 | 12627 ft | 244 kts | 282° |
| 2026-04-23 16:36 | 54.92982 | 72.92248 | 13448 ft | 255 kts | 314° |
| 2026-04-23 16:36 | 54.94642 | 72.90998 | 14291 ft | 275 kts | 342° |
| 2026-04-23 16:36 | 54.96564 | 72.90545 | 14867 ft | 289 kts | 341° |
| 2026-04-23 16:36 | 54.98380 | 72.89074 | 15348 ft | 287 kts | 312° |
| 2026-04-23 16:37 | 54.99484 | 72.86314 | 15870 ft | 290 kts | 290° |
| 2026-04-23 16:37 | 55.00226 | 72.82944 | 16389 ft | 304 kts | 288° |
| 2026-04-23 16:37 | 55.01386 | 72.78656 | 17139 ft | 321 kts | 295° |
| 2026-04-23 16:37 | 55.03085 | 72.74000 | 18347 ft | 327 kts | 299° |
| 2026-04-23 16:38 | 55.05035 | 72.69183 | 19573 ft | 331 kts | 300° |
| 2026-04-23 16:38 | 55.07685 | 72.62639 | 20949 ft | 336 kts | 300° |
| 2026-04-23 16:38 | 55.10362 | 72.55919 | 22217 ft | 342 kts | 300° |
| 2026-04-23 16:38 | 55.13055 | 72.49068 | 23546 ft | 347 kts | 300° |
| 2026-04-23 16:39 | 55.15784 | 72.42089 | 24827 ft | 350 kts | 300° |
| 2026-04-23 16:39 | 55.18427 | 72.35315 | 26159 ft | 352 kts | 300° |
| 2026-04-23 16:39 | 55.21182 | 72.28241 | 27209 ft | 357 kts | 299° |
| 2026-04-23 16:39 | 55.23900 | 72.21242 | 28405 ft | 359 kts | 299° |
| 2026-04-23 16:40 | 55.26418 | 72.14749 | 29443 ft | 360 kts | 299° |
| 2026-04-23 16:40 | 55.29051 | 72.07948 | 31049 ft | 355 kts | 299° |
| 2026-04-23 16:40 | 55.32102 | 72.00080 | 32548 ft | 352 kts | 298° |
| 2026-04-23 16:40 | 55.33495 | 71.96449 | 32656 ft | 361 kts | 298° |
| 2026-04-23 16:41 | 55.34890 | 71.92799 | 32852 ft | 366 kts | 298° |
| 2026-04-23 16:41 | 55.36305 | 71.89102 | 33173 ft | 367 kts | 298° |
| 2026-04-23 16:41 | 55.37729 | 71.85383 | 33470 ft | 369 kts | 298° |
| 2026-04-23 16:41 | 55.39080 | 71.81850 | 33720 ft | 371 kts | 298° |
| 2026-04-23 16:42 | 55.41110 | 71.76531 | 34055 ft | 374 kts | 298° |
| 2026-04-23 16:42 | 55.48378 | 71.57372 | 34831 ft | 380 kts | 298° |
| 2026-04-23 16:42 | 55.53174 | 71.44664 | 35467 ft | 384 kts | 298° |
| 2026-04-23 16:42 | 55.56377 | 71.36160 | 35942 ft | 387 kts | 298° |
| 2026-04-23 16:43 | 55.60421 | 71.25393 | 35833 ft | 380 kts | 297° |
| 2026-04-23 16:43 | 55.61861 | 71.21470 | 35827 ft | 381 kts | 296° |
| 2026-04-23 16:44 | 55.64357 | 71.13448 | 35827 ft | 377 kts | 292° |
| 2026-04-23 16:44 | 55.66710 | 71.05250 | 35820 ft | 378 kts | 291° |
| 2026-04-23 16:45 | 55.69049 | 70.97163 | 35826 ft | 378 kts | 292° |
| 2026-04-23 16:45 | 55.71450 | 70.88957 | 35818 ft | 379 kts | 292° |
| 2026-04-23 16:46 | 55.73842 | 70.80793 | 35819 ft | 379 kts | 292° |
| 2026-04-23 16:46 | 55.76244 | 70.72574 | 35813 ft | 381 kts | 292° |
| 2026-04-23 16:47 | 55.78605 | 70.64477 | 35808 ft | 380 kts | 292° |
| 2026-04-23 16:47 | 55.81020 | 70.56160 | 35807 ft | 381 kts | 292° |
| 2026-04-23 16:48 | 55.83408 | 70.47907 | 35811 ft | 382 kts | 292° |
| 2026-04-23 16:48 | 55.85800 | 70.39619 | 35810 ft | 380 kts | 292° |
| 2026-04-23 16:49 | 56.04973 | 69.72144 | 35803 ft | 381 kts | 292° |
| 2026-04-23 16:49 | 56.31964 | 68.79520 | 35762 ft | 385 kts | 291° |
| 2026-04-23 16:50 | 56.36193 | 68.62518 | 35752 ft | 382 kts | 289° |
| 2026-04-23 16:50 | 56.51459 | 68.02383 | 35724 ft | 383 kts | 290° |
| 2026-04-23 16:51 | 56.59756 | 67.71146 | 35710 ft | 386 kts | 292° |
| 2026-04-23 16:51 | 56.62105 | 67.62435 | 35715 ft | 386 kts | 291° |
| 2026-04-23 16:52 | 56.94749 | 66.30712 | 35696 ft | 388 kts | 288° |
| 2026-04-23 16:53 | 57.04208 | 65.87875 | 35669 ft | 387 kts | 288° |
| 2026-04-23 16:53 | 57.06261 | 65.78848 | 35664 ft | 389 kts | 289° |
| 2026-04-23 16:54 | 57.08268 | 65.70037 | 35666 ft | 387 kts | 289° |
| 2026-04-23 16:54 | 57.10261 | 65.61206 | 35660 ft | 388 kts | 289° |
| 2026-04-23 16:55 | 57.12330 | 65.51971 | 35666 ft | 389 kts | 288° |
| 2026-04-23 16:55 | 57.14298 | 65.43137 | 35662 ft | 389 kts | 288° |
| 2026-04-23 16:56 | 57.16460 | 65.34132 | 35661 ft | 392 kts | 294° |
| 2026-04-23 16:56 | 57.19753 | 65.26173 | 35659 ft | 402 kts | 309° |
| 2026-04-23 16:57 | 57.23721 | 65.19160 | 35651 ft | 403 kts | 312° |
| 2026-04-23 16:57 | 57.27860 | 65.12154 | 35647 ft | 403 kts | 312° |
| 2026-04-23 16:58 | 57.31967 | 65.05109 | 35647 ft | 404 kts | 312° |
| 2026-04-23 16:58 | 57.36055 | 64.97993 | 35646 ft | 404 kts | 311° |
| 2026-04-23 16:59 | 57.40043 | 64.90989 | 35645 ft | 404 kts | 311° |
| 2026-04-23 16:59 | 57.44104 | 64.83814 | 35638 ft | 405 kts | 311° |
| 2026-04-23 17:00 | 57.48167 | 64.76606 | 35633 ft | 405 kts | 311° |
| 2026-04-23 17:00 | 57.52264 | 64.69310 | 35624 ft | 405 kts | 311° |
| 2026-04-23 17:01 | 57.56327 | 64.62030 | 35628 ft | 405 kts | 311° |
| 2026-04-23 17:01 | 57.60361 | 64.54776 | 35624 ft | 405 kts | 312° |
| 2026-04-23 17:02 | 57.64368 | 64.47548 | 35618 ft | 405 kts | 312° |
| 2026-04-23 17:02 | 57.68401 | 64.40250 | 35614 ft | 405 kts | 312° |
| 2026-04-23 17:03 | 57.72455 | 64.32891 | 35615 ft | 406 kts | 311° |
| 2026-04-23 17:03 | 57.76460 | 64.25600 | 35611 ft | 405 kts | 311° |
| 2026-04-23 17:04 | 57.80508 | 64.18205 | 35613 ft | 406 kts | 311° |
| 2026-04-23 17:04 | 57.84500 | 64.10847 | 35613 ft | 406 kts | 310° |
| 2026-04-23 17:05 | 57.88459 | 64.03273 | 35606 ft | 405 kts | 310° |
| 2026-04-23 17:05 | 57.92340 | 63.95754 | 35608 ft | 404 kts | 310° |
| 2026-04-23 17:06 | 57.96238 | 63.88188 | 35608 ft | 404 kts | 310° |
| 2026-04-23 17:06 | 58.00139 | 63.80613 | 35606 ft | 405 kts | 310° |
| 2026-04-23 17:07 | 58.04061 | 63.72982 | 35593 ft | 406 kts | 310° |
| 2026-04-23 17:07 | 58.07967 | 63.65358 | 35588 ft | 406 kts | 310° |
| 2026-04-23 17:08 | 58.11901 | 63.57628 | 35596 ft | 406 kts | 310° |
| 2026-04-23 17:08 | 58.15756 | 63.49855 | 35594 ft | 406 kts | 309° |
| 2026-04-23 17:09 | 58.19572 | 63.42083 | 35596 ft | 407 kts | 309° |
| 2026-04-23 17:09 | 58.23422 | 63.34231 | 35595 ft | 407 kts | 309° |
| 2026-04-23 17:10 | 58.27266 | 63.26378 | 35588 ft | 406 kts | 309° |
| 2026-04-23 17:10 | 58.31079 | 63.18567 | 35592 ft | 405 kts | 309° |
| 2026-04-23 17:11 | 58.34896 | 63.10720 | 35595 ft | 407 kts | 309° |
| 2026-04-23 17:11 | 58.38721 | 63.02834 | 35600 ft | 407 kts | 309° |
| 2026-04-23 17:12 | 58.42532 | 62.94951 | 35596 ft | 406 kts | 309° |
| 2026-04-23 17:12 | 58.46359 | 62.87007 | 35591 ft | 407 kts | 309° |
| 2026-04-23 17:13 | 58.50176 | 62.79056 | 35590 ft | 407 kts | 309° |
| 2026-04-23 17:13 | 58.53977 | 62.71102 | 35595 ft | 407 kts | 308° |
| 2026-04-23 17:14 | 58.57607 | 62.62841 | 35593 ft | 406 kts | 306° |
| 2026-04-23 17:14 | 58.61109 | 62.54395 | 35595 ft | 405 kts | 305° |
| 2026-04-23 17:15 | 58.64595 | 62.45972 | 35595 ft | 406 kts | 306° |
| 2026-04-23 17:15 | 58.68115 | 62.37509 | 35594 ft | 406 kts | 306° |
| 2026-04-23 17:16 | 58.71630 | 62.29067 | 35594 ft | 406 kts | 305° |
| 2026-04-23 17:16 | 58.75139 | 62.20629 | 35593 ft | 406 kts | 305° |
| 2026-04-23 17:17 | 58.78663 | 62.12127 | 35591 ft | 407 kts | 305° |
| 2026-04-23 17:17 | 58.82184 | 62.03602 | 35593 ft | 407 kts | 305° |
| 2026-04-23 17:18 | 58.87450 | 61.90792 | 35596 ft | 407 kts | 305° |
| 2026-04-23 17:19 | 58.90939 | 61.82271 | 35595 ft | 406 kts | 305° |
| 2026-04-23 17:19 | 58.94434 | 61.73703 | 35598 ft | 406 kts | 305° |
| 2026-04-23 17:20 | 58.97817 | 61.64983 | 35596 ft | 404 kts | 300° |
| 2026-04-23 17:20 | 58.99932 | 61.55143 | 35598 ft | 398 kts | 282° |
| 2026-04-23 17:21 | 59.01021 | 61.44631 | 35600 ft | 398 kts | 278° |
| 2026-04-23 17:21 | 59.02465 | 61.28871 | 35601 ft | 398 kts | 278° |
| 2026-04-23 17:22 | 59.03949 | 61.12995 | 35602 ft | 399 kts | 278° |
| 2026-04-23 17:23 | 59.05430 | 60.97209 | 35601 ft | 398 kts | 278° |
| 2026-04-23 17:24 | 59.06900 | 60.81379 | 35606 ft | 398 kts | 278° |
| 2026-04-23 17:24 | 59.08222 | 60.66953 | 35598 ft | 398 kts | 278° |
| 2026-04-23 17:25 | 59.09753 | 60.50018 | 35601 ft | 398 kts | 278° |
| 2026-04-23 17:26 | 59.11634 | 60.28849 | 35587 ft | 399 kts | 277° |
| 2026-04-23 17:27 | 59.13028 | 60.12890 | 35579 ft | 399 kts | 277° |
| 2026-04-23 17:27 | 59.13943 | 60.02276 | 35572 ft | 398 kts | 277° |
| 2026-04-23 17:28 | 59.14854 | 59.91611 | 35569 ft | 399 kts | 277° |
| 2026-04-23 17:28 | 59.15754 | 59.80957 | 35572 ft | 400 kts | 277° |
| 2026-04-23 17:29 | 59.16640 | 59.70365 | 35585 ft | 399 kts | 277° |
| 2026-04-23 17:30 | 59.17961 | 59.54371 | 35587 ft | 400 kts | 277° |
| 2026-04-23 17:30 | 59.19264 | 59.38347 | 35586 ft | 400 kts | 277° |
| 2026-04-23 17:31 | 59.20122 | 59.27648 | 35573 ft | 400 kts | 277° |
| 2026-04-23 17:31 | 59.20971 | 59.16954 | 35570 ft | 399 kts | 277° |
| 2026-04-23 17:32 | 59.21810 | 59.06258 | 35548 ft | 399 kts | 277° |
| 2026-04-23 17:32 | 59.22624 | 58.95771 | 35536 ft | 399 kts | 277° |
| 2026-04-23 17:33 | 59.23429 | 58.85293 | 35539 ft | 399 kts | 277° |
| 2026-04-23 17:33 | 59.24237 | 58.74652 | 35536 ft | 399 kts | 277° |
| 2026-04-23 17:34 | 59.25030 | 58.64103 | 35541 ft | 399 kts | 277° |
| 2026-04-23 17:35 | 59.26214 | 58.48117 | 35547 ft | 399 kts | 277° |
| 2026-04-23 17:35 | 59.27386 | 58.32014 | 35543 ft | 399 kts | 276° |
| 2026-04-23 17:36 | 59.28153 | 58.21323 | 35541 ft | 399 kts | 276° |
| 2026-04-23 17:36 | 59.28912 | 58.10612 | 35555 ft | 399 kts | 276° |
| 2026-04-23 17:37 | 59.29665 | 57.99876 | 35567 ft | 400 kts | 276° |
| 2026-04-23 17:38 | 59.30788 | 57.83846 | 35580 ft | 399 kts | 276° |
| 2026-04-23 17:38 | 59.31532 | 57.73085 | 35574 ft | 398 kts | 276° |
| 2026-04-23 17:39 | 59.32250 | 57.62569 | 35578 ft | 398 kts | 276° |
| 2026-04-23 17:39 | 59.32972 | 57.51851 | 35579 ft | 399 kts | 276° |
| 2026-04-23 17:40 | 59.33684 | 57.41123 | 35578 ft | 399 kts | 276° |
| 2026-04-23 17:40 | 59.34384 | 57.30461 | 35579 ft | 398 kts | 276° |
| 2026-04-23 17:41 | 59.35080 | 57.19724 | 35575 ft | 398 kts | 276° |
| 2026-04-23 17:41 | 59.36073 | 57.03592 | 35573 ft | 397 kts | 275° |
| 2026-04-23 17:42 | 59.36888 | 56.87499 | 35576 ft | 397 kts | 275° |
| 2026-04-23 17:43 | 59.37416 | 56.76814 | 35577 ft | 397 kts | 275° |
| 2026-04-23 17:43 | 59.37945 | 56.66080 | 35580 ft | 398 kts | 275° |
| 2026-04-23 17:44 | 59.38471 | 56.55305 | 35575 ft | 398 kts | 275° |
| 2026-04-23 17:44 | 59.39245 | 56.39145 | 35565 ft | 398 kts | 275° |
| 2026-04-23 17:45 | 59.39997 | 56.23036 | 35575 ft | 397 kts | 274° |
| 2026-04-23 17:46 | 59.40730 | 56.06910 | 35573 ft | 396 kts | 274° |
| 2026-04-23 17:46 | 59.41206 | 55.96180 | 35575 ft | 396 kts | 274° |
| 2026-04-23 17:47 | 59.41673 | 55.85466 | 35572 ft | 397 kts | 274° |
| 2026-04-23 17:48 | 59.42358 | 55.69355 | 35570 ft | 397 kts | 274° |
| 2026-04-23 17:48 | 59.42806 | 55.58563 | 35560 ft | 397 kts | 274° |
| 2026-04-23 17:49 | 59.43244 | 55.47803 | 35557 ft | 397 kts | 274° |
| 2026-04-23 17:49 | 59.43672 | 55.37058 | 35556 ft | 396 kts | 274° |
| 2026-04-23 17:50 | 59.44089 | 55.26350 | 35553 ft | 396 kts | 273° |
| 2026-04-23 17:50 | 59.44702 | 55.10206 | 35554 ft | 396 kts | 273° |
| 2026-04-23 17:51 | 59.45098 | 54.99484 | 35552 ft | 396 kts | 273° |
| 2026-04-23 17:52 | 59.45676 | 54.83374 | 35545 ft | 395 kts | 272° |
| 2026-04-23 17:52 | 59.46232 | 54.67332 | 35548 ft | 395 kts | 273° |
| 2026-04-23 17:53 | 59.46767 | 54.51292 | 35560 ft | 395 kts | 273° |
| 2026-04-23 17:54 | 59.47114 | 54.40590 | 35560 ft | 395 kts | 272° |
| 2026-04-23 17:54 | 59.47619 | 54.24488 | 35553 ft | 394 kts | 272° |
| 2026-04-23 17:55 | 59.48103 | 54.08402 | 35547 ft | 395 kts | 272° |
| 2026-04-23 17:56 | 59.48416 | 53.97625 | 35544 ft | 395 kts | 272° |
| 2026-04-23 17:56 | 59.48868 | 53.81513 | 35538 ft | 395 kts | 272° |
| 2026-04-23 17:57 | 59.49158 | 53.70786 | 35537 ft | 395 kts | 272° |
| 2026-04-23 17:58 | 59.49576 | 53.54662 | 35532 ft | 395 kts | 272° |
| 2026-04-23 17:58 | 59.49843 | 53.43951 | 35530 ft | 394 kts | 271° |
| 2026-04-23 17:59 | 59.50102 | 53.33230 | 35531 ft | 394 kts | 271° |
| 2026-04-23 17:59 | 59.50352 | 53.22457 | 35527 ft | 395 kts | 271° |
| 2026-04-23 18:00 | 59.50681 | 53.11716 | 35529 ft | 395 kts | 274° |
| 2026-04-23 18:00 | 59.51246 | 53.00977 | 35536 ft | 396 kts | 275° |
| 2026-04-23 18:01 | 59.51837 | 52.90270 | 35536 ft | 395 kts | 274° |
| 2026-04-23 18:01 | 59.52398 | 52.79547 | 35537 ft | 394 kts | 274° |
| 2026-04-23 18:02 | 59.52934 | 52.68834 | 35540 ft | 394 kts | 274° |
| 2026-04-23 18:02 | 59.53452 | 52.58122 | 35531 ft | 394 kts | 274° |
| 2026-04-23 18:03 | 59.53957 | 52.47464 | 35533 ft | 394 kts | 274° |
| 2026-04-23 18:03 | 59.54454 | 52.36758 | 35539 ft | 394 kts | 274° |
| 2026-04-23 18:04 | 59.54943 | 52.26016 | 35539 ft | 394 kts | 273° |
| 2026-04-23 18:04 | 59.55420 | 52.15353 | 35538 ft | 394 kts | 273° |
| 2026-04-23 18:05 | 59.55891 | 52.04626 | 35533 ft | 394 kts | 273° |
| 2026-04-23 18:05 | 59.56358 | 51.93851 | 35534 ft | 393 kts | 273° |
| 2026-04-23 18:06 | 59.56816 | 51.83162 | 35531 ft | 393 kts | 273° |
| 2026-04-23 18:06 | 59.57266 | 51.72450 | 35529 ft | 393 kts | 273° |
| 2026-04-23 18:07 | 59.57705 | 51.61775 | 35522 ft | 393 kts | 273° |
| 2026-04-23 18:07 | 59.58138 | 51.51037 | 35511 ft | 393 kts | 273° |
| 2026-04-23 18:08 | 59.58561 | 51.40328 | 35509 ft | 393 kts | 273° |
| 2026-04-23 18:08 | 59.58976 | 51.29575 | 35507 ft | 393 kts | 272° |
| 2026-04-23 18:09 | 59.59379 | 51.18911 | 35505 ft | 393 kts | 272° |
| 2026-04-23 18:09 | 59.59775 | 51.08184 | 35505 ft | 394 kts | 272° |
| 2026-04-23 18:10 | 59.60164 | 50.97424 | 35500 ft | 393 kts | 272° |
| 2026-04-23 18:10 | 59.60542 | 50.86735 | 35493 ft | 394 kts | 272° |
| 2026-04-23 18:11 | 59.60720 | 50.75952 | 35499 ft | 393 kts | 269° |
| 2026-04-23 18:11 | 59.60664 | 50.65270 | 35503 ft | 392 kts | 268° |
| 2026-04-23 18:12 | 59.60593 | 50.54496 | 35511 ft | 392 kts | 268° |
| 2026-04-23 18:12 | 59.60543 | 50.43801 | 35501 ft | 391 kts | 268° |
| 2026-04-23 18:13 | 59.60500 | 50.33039 | 35495 ft | 392 kts | 268° |
| 2026-04-23 18:13 | 59.60486 | 50.22295 | 35484 ft | 393 kts | 268° |
| 2026-04-23 18:14 | 59.60483 | 50.11623 | 35482 ft | 393 kts | 268° |
| 2026-04-23 18:14 | 59.60469 | 50.00818 | 35475 ft | 393 kts | 268° |
| 2026-04-23 18:15 | 59.60444 | 49.90036 | 35477 ft | 393 kts | 268° |
| 2026-04-23 18:15 | 59.60409 | 49.79321 | 35475 ft | 393 kts | 268° |
| 2026-04-23 18:16 | 59.60365 | 49.68567 | 35473 ft | 393 kts | 268° |
| 2026-04-23 18:16 | 59.60311 | 49.57838 | 35464 ft | 394 kts | 268° |
| 2026-04-23 18:17 | 59.60213 | 49.41710 | 35465 ft | 393 kts | 268° |
| 2026-04-23 18:17 | 59.60137 | 49.30898 | 35462 ft | 393 kts | 267° |
| 2026-04-23 18:18 | 59.60052 | 49.20155 | 35455 ft | 394 kts | 267° |
| 2026-04-23 18:18 | 59.59958 | 49.09384 | 35438 ft | 394 kts | 267° |
| 2026-04-23 18:19 | 59.59855 | 48.98579 | 35439 ft | 393 kts | 267° |
| 2026-04-23 18:19 | 59.59738 | 48.87863 | 35448 ft | 394 kts | 267° |
| 2026-04-23 18:20 | 59.59602 | 48.77055 | 35450 ft | 395 kts | 267° |
| 2026-04-23 18:20 | 59.59456 | 48.66297 | 35455 ft | 394 kts | 267° |
| 2026-04-23 18:21 | 59.59304 | 48.55575 | 35448 ft | 394 kts | 267° |
| 2026-04-23 18:21 | 59.59142 | 48.44775 | 35449 ft | 394 kts | 267° |
| 2026-04-23 18:22 | 59.58972 | 48.34000 | 35442 ft | 395 kts | 266° |
| 2026-04-23 18:22 | 59.58799 | 48.23248 | 35441 ft | 395 kts | 266° |
| 2026-04-23 18:23 | 59.58534 | 48.07140 | 35427 ft | 394 kts | 266° |
| 2026-04-23 18:24 | 59.58246 | 47.90927 | 35427 ft | 395 kts | 266° |
| 2026-04-23 18:25 | 59.57937 | 47.74727 | 35423 ft | 395 kts | 266° |
| 2026-04-23 18:25 | 59.57720 | 47.63981 | 35432 ft | 396 kts | 266° |
| 2026-04-23 18:26 | 59.57494 | 47.53144 | 35431 ft | 395 kts | 266° |
| 2026-04-23 18:26 | 59.57260 | 47.42404 | 35420 ft | 395 kts | 266° |
| 2026-04-23 18:27 | 59.57014 | 47.31544 | 35426 ft | 396 kts | 265° |
| 2026-04-23 18:27 | 59.56762 | 47.20763 | 35422 ft | 396 kts | 265° |
| 2026-04-23 18:28 | 59.56504 | 47.09916 | 35411 ft | 396 kts | 265° |
| 2026-04-23 18:28 | 59.56242 | 46.99125 | 35403 ft | 396 kts | 265° |
| 2026-04-23 18:29 | 59.55968 | 46.88312 | 35400 ft | 396 kts | 265° |
| 2026-04-23 18:29 | 59.55686 | 46.77504 | 35391 ft | 396 kts | 265° |
| 2026-04-23 18:30 | 59.55393 | 46.66607 | 35396 ft | 397 kts | 265° |
| 2026-04-23 18:30 | 59.55093 | 46.55823 | 35394 ft | 397 kts | 265° |
| 2026-04-23 18:31 | 59.54782 | 46.44979 | 35400 ft | 397 kts | 265° |
| 2026-04-23 18:31 | 59.54464 | 46.34181 | 35396 ft | 397 kts | 265° |
| 2026-04-23 18:32 | 59.54133 | 46.23261 | 35392 ft | 397 kts | 265° |
| 2026-04-23 18:32 | 59.53793 | 46.12356 | 35383 ft | 397 kts | 265° |
| 2026-04-23 18:33 | 59.53450 | 46.01606 | 35382 ft | 397 kts | 265° |
| 2026-04-23 18:33 | 59.53094 | 45.90774 | 35376 ft | 398 kts | 265° |
| 2026-04-23 18:34 | 59.52728 | 45.79899 | 35379 ft | 398 kts | 265° |
| 2026-04-23 18:34 | 59.52356 | 45.69088 | 35381 ft | 398 kts | 265° |
| 2026-04-23 18:35 | 59.51975 | 45.58287 | 35384 ft | 397 kts | 265° |
| 2026-04-23 18:35 | 59.51830 | 45.47420 | 35384 ft | 399 kts | 272° |
| 2026-04-23 18:36 | 59.52371 | 45.36553 | 35384 ft | 400 kts | 276° |
| 2026-04-23 18:36 | 59.53095 | 45.25795 | 35388 ft | 400 kts | 276° |
| 2026-04-23 18:37 | 59.53814 | 45.14964 | 35390 ft | 400 kts | 275° |
| 2026-04-23 18:37 | 59.54497 | 45.04150 | 35383 ft | 400 kts | 276° |
| 2026-04-23 18:38 | 59.55160 | 44.93259 | 35387 ft | 400 kts | 275° |
| 2026-04-23 18:38 | 59.55805 | 44.82406 | 35393 ft | 400 kts | 275° |
| 2026-04-23 18:39 | 59.56444 | 44.71625 | 35384 ft | 400 kts | 276° |
| 2026-04-23 18:39 | 59.57204 | 44.60773 | 35379 ft | 400 kts | 277° |
| 2026-04-23 18:40 | 59.58004 | 44.49936 | 35380 ft | 401 kts | 277° |
| 2026-04-23 18:40 | 59.58788 | 44.39078 | 35380 ft | 401 kts | 277° |
| 2026-04-23 18:41 | 59.59551 | 44.28248 | 35386 ft | 400 kts | 276° |
| 2026-04-23 18:41 | 59.60295 | 44.17461 | 35397 ft | 400 kts | 276° |
| 2026-04-23 18:42 | 59.61034 | 44.06596 | 35400 ft | 399 kts | 276° |
| 2026-04-23 18:42 | 59.61762 | 43.95743 | 35404 ft | 401 kts | 276° |
| 2026-04-23 18:43 | 59.62483 | 43.84848 | 35409 ft | 401 kts | 276° |
| 2026-04-23 18:43 | 59.63195 | 43.73944 | 35413 ft | 401 kts | 276° |
| 2026-04-23 18:44 | 59.63896 | 43.63071 | 35414 ft | 401 kts | 276° |
| 2026-04-23 18:44 | 59.64590 | 43.52166 | 35418 ft | 401 kts | 276° |
| 2026-04-23 18:45 | 59.65273 | 43.41281 | 35413 ft | 400 kts | 276° |
| 2026-04-23 18:45 | 59.65948 | 43.30371 | 35422 ft | 400 kts | 276° |
| 2026-04-23 18:46 | 59.66616 | 43.19436 | 35419 ft | 401 kts | 276° |
| 2026-04-23 18:46 | 59.67272 | 43.08531 | 35424 ft | 403 kts | 276° |
| 2026-04-23 18:47 | 59.67920 | 42.97607 | 35434 ft | 402 kts | 276° |
| 2026-04-23 18:47 | 59.68561 | 42.86668 | 35445 ft | 401 kts | 276° |
| 2026-04-23 18:48 | 59.69190 | 42.75744 | 35448 ft | 401 kts | 276° |
| 2026-04-23 18:48 | 59.69811 | 42.64801 | 35450 ft | 401 kts | 276° |
| 2026-04-23 18:49 | 59.70410 | 42.53854 | 35452 ft | 401 kts | 276° |
| 2026-04-23 18:49 | 59.70979 | 42.42955 | 35462 ft | 402 kts | 276° |
| 2026-04-23 18:50 | 59.71453 | 42.33722 | 35463 ft | 402 kts | 275° |
| 2026-04-23 18:50 | 59.72102 | 42.20915 | 35458 ft | 401 kts | 275° |
| 2026-04-23 18:51 | 59.72647 | 42.09987 | 35458 ft | 401 kts | 275° |
| 2026-04-23 18:51 | 59.73183 | 41.99050 | 35459 ft | 402 kts | 275° |
| 2026-04-23 18:52 | 59.73715 | 41.88030 | 35462 ft | 402 kts | 276° |
| 2026-04-23 18:52 | 59.74237 | 41.77016 | 35463 ft | 402 kts | 276° |
| 2026-04-23 18:53 | 59.74748 | 41.66042 | 35469 ft | 402 kts | 276° |
| 2026-04-23 18:53 | 59.75312 | 41.55092 | 35471 ft | 402 kts | 278° |
| 2026-04-23 18:54 | 59.76207 | 41.44196 | 35476 ft | 402 kts | 281° |
| 2026-04-23 18:54 | 59.77177 | 41.33302 | 35477 ft | 402 kts | 280° |
| 2026-04-23 18:55 | 59.78112 | 41.22451 | 35483 ft | 403 kts | 280° |
| 2026-04-23 18:55 | 59.79026 | 41.11447 | 35493 ft | 403 kts | 280° |
| 2026-04-23 18:56 | 59.79914 | 41.00489 | 35495 ft | 403 kts | 279° |
| 2026-04-23 18:56 | 59.80784 | 40.89569 | 35501 ft | 404 kts | 280° |
| 2026-04-23 18:57 | 59.81644 | 40.78627 | 35502 ft | 403 kts | 280° |
| 2026-04-23 18:57 | 59.82487 | 40.67792 | 35504 ft | 403 kts | 280° |
| 2026-04-23 18:58 | 59.83303 | 40.57182 | 35509 ft | 404 kts | 280° |
| 2026-04-23 18:58 | 59.84116 | 40.46480 | 35510 ft | 404 kts | 280° |
| 2026-04-23 18:59 | 59.84923 | 40.35743 | 35510 ft | 404 kts | 280° |
| 2026-04-23 18:59 | 59.85746 | 40.24677 | 35512 ft | 404 kts | 279° |
| 2026-04-23 19:00 | 59.86554 | 40.13678 | 35516 ft | 404 kts | 279° |
| 2026-04-23 19:00 | 59.87349 | 40.02713 | 35520 ft | 404 kts | 279° |
| 2026-04-23 19:01 | 59.88143 | 39.91644 | 35530 ft | 406 kts | 279° |
| 2026-04-23 19:01 | 59.88927 | 39.80587 | 35529 ft | 406 kts | 280° |
| 2026-04-23 19:02 | 59.89704 | 39.69481 | 35535 ft | 405 kts | 280° |
| 2026-04-23 19:02 | 59.90467 | 39.58434 | 35538 ft | 404 kts | 280° |
| 2026-04-23 19:03 | 59.91224 | 39.47349 | 35545 ft | 405 kts | 280° |
| 2026-04-23 19:03 | 59.91956 | 39.36486 | 35548 ft | 405 kts | 280° |
| 2026-04-23 19:04 | 59.92690 | 39.25442 | 35558 ft | 405 kts | 279° |
| 2026-04-23 19:04 | 59.93421 | 39.14313 | 35564 ft | 405 kts | 279° |
| 2026-04-23 19:05 | 59.94139 | 39.03236 | 35569 ft | 405 kts | 279° |
| 2026-04-23 19:05 | 59.94851 | 38.92102 | 35570 ft | 405 kts | 280° |
| 2026-04-23 19:06 | 59.95553 | 38.80983 | 35565 ft | 405 kts | 279° |
| 2026-04-23 19:06 | 59.96240 | 38.69939 | 35559 ft | 404 kts | 280° |
| 2026-04-23 19:07 | 59.96919 | 38.58861 | 35562 ft | 404 kts | 280° |
| 2026-04-23 19:07 | 59.97591 | 38.47755 | 35567 ft | 404 kts | 280° |
| 2026-04-23 19:08 | 59.98253 | 38.36656 | 35574 ft | 405 kts | 280° |
| 2026-04-23 19:08 | 59.98909 | 38.25500 | 35581 ft | 405 kts | 279° |
| 2026-04-23 19:09 | 59.99550 | 38.14423 | 35581 ft | 405 kts | 279° |
| 2026-04-23 19:09 | 60.00185 | 38.03289 | 35576 ft | 405 kts | 279° |
| 2026-04-23 19:10 | 60.00811 | 37.92151 | 35574 ft | 404 kts | 279° |
| 2026-04-23 19:10 | 60.01425 | 37.81047 | 35581 ft | 404 kts | 280° |
| 2026-04-23 19:11 | 60.02033 | 37.69887 | 35589 ft | 404 kts | 280° |
| 2026-04-23 19:11 | 60.02630 | 37.58785 | 35601 ft | 405 kts | 280° |
| 2026-04-23 19:12 | 60.03220 | 37.47631 | 35607 ft | 404 kts | 280° |
| 2026-04-23 19:12 | 60.03802 | 37.36448 | 35613 ft | 404 kts | 280° |
| 2026-04-23 19:13 | 60.04369 | 37.25366 | 35612 ft | 405 kts | 279° |
| 2026-04-23 19:13 | 60.04932 | 37.14165 | 35605 ft | 404 kts | 280° |
| 2026-04-23 19:14 | 60.05482 | 37.03068 | 35605 ft | 404 kts | 280° |
| 2026-04-23 19:14 | 60.06024 | 36.91894 | 35613 ft | 404 kts | 280° |
| 2026-04-23 19:15 | 60.06557 | 36.80708 | 35616 ft | 404 kts | 280° |
| 2026-04-23 19:15 | 60.07068 | 36.69772 | 35620 ft | 403 kts | 280° |
| 2026-04-23 19:16 | 60.07570 | 36.58830 | 35628 ft | 403 kts | 280° |
| 2026-04-23 19:16 | 60.08071 | 36.47707 | 35632 ft | 403 kts | 280° |
| 2026-04-23 19:17 | 60.08807 | 36.31004 | 35628 ft | 404 kts | 279° |
| 2026-04-23 19:17 | 60.09288 | 36.19794 | 35623 ft | 404 kts | 279° |
| 2026-04-23 19:18 | 60.09755 | 36.08670 | 35624 ft | 404 kts | 280° |
| 2026-04-23 19:18 | 60.10215 | 35.97505 | 35625 ft | 403 kts | 280° |
| 2026-04-23 19:19 | 60.10887 | 35.80728 | 35634 ft | 403 kts | 280° |
| 2026-04-23 19:20 | 60.11534 | 35.64042 | 35639 ft | 402 kts | 280° |
| 2026-04-23 19:20 | 60.11956 | 35.52859 | 35640 ft | 403 kts | 280° |
| 2026-04-23 19:21 | 60.12566 | 35.36166 | 35641 ft | 402 kts | 281° |
| 2026-04-23 19:22 | 60.12967 | 35.24950 | 35642 ft | 402 kts | 280° |
| 2026-04-23 19:22 | 60.13545 | 35.08219 | 35642 ft | 401 kts | 280° |
| 2026-04-23 19:23 | 60.13839 | 34.99503 | 35641 ft | 402 kts | 280° |
| 2026-04-23 19:24 | 60.14376 | 34.83114 | 35643 ft | 402 kts | 280° |
| 2026-04-23 19:24 | 60.14900 | 34.66385 | 35646 ft | 402 kts | 281° |
| 2026-04-23 19:25 | 60.15563 | 34.44167 | 35426 ft | 395 kts | 281° |
| 2026-04-23 19:26 | 60.15873 | 34.33255 | 34492 ft | 393 kts | 280° |
| 2026-04-23 19:26 | 60.16028 | 34.27776 | 33938 ft | 394 kts | 280° |
| 2026-04-23 19:27 | 60.16333 | 34.16814 | 32866 ft | 396 kts | 281° |
| 2026-04-23 19:27 | 60.16778 | 34.00241 | 31243 ft | 403 kts | 281° |
| 2026-04-23 19:28 | 60.17057 | 33.89066 | 30295 ft | 401 kts | 282° |
| 2026-04-23 19:28 | 60.17325 | 33.78000 | 29283 ft | 399 kts | 282° |
| 2026-04-23 19:29 | 60.17453 | 33.72533 | 28793 ft | 397 kts | 282° |
| 2026-04-23 19:29 | 60.17706 | 33.61563 | 27818 ft | 391 kts | 282° |
| 2026-04-23 19:30 | 60.17944 | 33.50767 | 26835 ft | 384 kts | 282° |
| 2026-04-23 19:30 | 60.18057 | 33.45513 | 26348 ft | 380 kts | 282° |
| 2026-04-23 19:30 | 60.18272 | 33.35141 | 25434 ft | 369 kts | 283° |
| 2026-04-23 19:31 | 60.18377 | 33.30005 | 24988 ft | 364 kts | 282° |
| 2026-04-23 19:31 | 60.18478 | 33.24992 | 24542 ft | 359 kts | 282° |
| 2026-04-23 19:31 | 60.18540 | 33.20056 | 24093 ft | 356 kts | 280° |
| 2026-04-23 19:31 | 60.18408 | 33.15122 | 23662 ft | 359 kts | 272° |
| 2026-04-23 19:32 | 60.17951 | 33.10237 | 23215 ft | 362 kts | 266° |
| 2026-04-23 19:32 | 60.17303 | 33.05392 | 22774 ft | 360 kts | 263° |
| 2026-04-23 19:32 | 60.16591 | 33.00597 | 22328 ft | 357 kts | 263° |
| 2026-04-23 19:32 | 60.15892 | 32.95992 | 21904 ft | 353 kts | 263° |
| 2026-04-23 19:33 | 60.15190 | 32.91317 | 21468 ft | 349 kts | 263° |
| 2026-04-23 19:33 | 60.14513 | 32.86747 | 21044 ft | 345 kts | 263° |
| 2026-04-23 19:33 | 60.13187 | 32.77665 | 20198 ft | 338 kts | 263° |
| 2026-04-23 19:34 | 60.12541 | 32.73209 | 19785 ft | 334 kts | 263° |
| 2026-04-23 19:34 | 60.11907 | 32.68838 | 19383 ft | 330 kts | 263° |
| 2026-04-23 19:34 | 60.10636 | 32.60104 | 18572 ft | 324 kts | 263° |
| 2026-04-23 19:35 | 60.10011 | 32.55810 | 18174 ft | 321 kts | 263° |
| 2026-04-23 19:35 | 60.09383 | 32.51499 | 17777 ft | 323 kts | 263° |
| 2026-04-23 19:35 | 60.08753 | 32.47171 | 17371 ft | 326 kts | 262° |
| 2026-04-23 19:35 | 60.08118 | 32.42858 | 16964 ft | 323 kts | 262° |
| 2026-04-23 19:36 | 60.07481 | 32.38572 | 16570 ft | 320 kts | 262° |
| 2026-04-23 19:36 | 60.06854 | 32.34362 | 16170 ft | 317 kts | 261° |
| 2026-04-23 19:36 | 60.06229 | 32.30168 | 15795 ft | 313 kts | 261° |
| 2026-04-23 19:36 | 60.05588 | 32.26060 | 15601 ft | 312 kts | 259° |
| 2026-04-23 19:37 | 60.04898 | 32.21925 | 15282 ft | 322 kts | 258° |
| 2026-04-23 19:37 | 60.04170 | 32.17715 | 14881 ft | 319 kts | 257° |
| 2026-04-23 19:37 | 60.03447 | 32.13583 | 14490 ft | 316 kts | 257° |
| 2026-04-23 19:37 | 60.02795 | 32.09842 | 14137 ft | 313 kts | 257° |
| 2026-04-23 19:38 | 60.02316 | 32.07082 | 13874 ft | 311 kts | 257° |
| 2026-04-23 19:38 | 60.01635 | 32.03121 | 13497 ft | 308 kts | 257° |
| 2026-04-23 19:38 | 60.00944 | 31.99103 | 13108 ft | 305 kts | 257° |
| 2026-04-23 19:38 | 60.00325 | 31.95502 | 12762 ft | 303 kts | 257° |
| 2026-04-23 19:39 | 59.99673 | 31.91721 | 12401 ft | 300 kts | 257° |
| 2026-04-23 19:39 | 59.98992 | 31.87789 | 12021 ft | 297 kts | 257° |
| 2026-04-23 19:39 | 59.98318 | 31.83909 | 11646 ft | 295 kts | 257° |
| 2026-04-23 19:39 | 59.97693 | 31.80320 | 11301 ft | 297 kts | 256° |
| 2026-04-23 19:40 | 59.96989 | 31.76284 | 10908 ft | 298 kts | 256° |
| 2026-04-23 19:40 | 59.96312 | 31.72412 | 10534 ft | 295 kts | 256° |
| 2026-04-23 19:40 | 59.95647 | 31.68620 | 10160 ft | 287 kts | 256° |
| 2026-04-23 19:40 | 59.95179 | 31.65949 | 9909 ft | 280 kts | 256° |
| 2026-04-23 19:41 | 59.94553 | 31.62386 | 9616 ft | 270 kts | 256° |
| 2026-04-23 19:41 | 59.93952 | 31.58975 | 9366 ft | 259 kts | 256° |
| 2026-04-23 19:41 | 59.93367 | 31.55637 | 9044 ft | 253 kts | 257° |
| 2026-04-23 19:41 | 59.92795 | 31.52379 | 8738 ft | 249 kts | 257° |
| 2026-04-23 19:42 | 59.92214 | 31.49026 | 8438 ft | 264 kts | 256° |
| 2026-04-23 19:42 | 59.91597 | 31.45539 | 8174 ft | 267 kts | 256° |
| 2026-04-23 19:42 | 59.90964 | 31.42093 | 7904 ft | 266 kts | 255° |
| 2026-04-23 19:42 | 59.90330 | 31.38671 | 7647 ft | 265 kts | 255° |
| 2026-04-23 19:43 | 59.89712 | 31.35340 | 7390 ft | 264 kts | 255° |
| 2026-04-23 19:43 | 59.89089 | 31.31981 | 7128 ft | 263 kts | 254° |
| 2026-04-23 19:43 | 59.88456 | 31.28568 | 6865 ft | 263 kts | 254° |
| 2026-04-23 19:43 | 59.87830 | 31.25205 | 6601 ft | 263 kts | 254° |
| 2026-04-23 19:44 | 59.87199 | 31.21825 | 6337 ft | 260 kts | 254° |
| 2026-04-23 19:44 | 59.86568 | 31.18444 | 6070 ft | 258 kts | 254° |
| 2026-04-23 19:44 | 59.85945 | 31.15115 | 5802 ft | 255 kts | 254° |
| 2026-04-23 19:44 | 59.85332 | 31.11835 | 5542 ft | 254 kts | 254° |
| 2026-04-23 19:45 | 59.84730 | 31.08616 | 5282 ft | 253 kts | 254° |
| 2026-04-23 19:45 | 59.84116 | 31.05348 | 5019 ft | 250 kts | 254° |
| 2026-04-23 19:45 | 59.83514 | 31.02176 | 4749 ft | 238 kts | 254° |
| 2026-04-23 19:45 | 59.82943 | 30.99181 | 4487 ft | 227 kts | 254° |
| 2026-04-23 19:46 | 59.82434 | 30.96504 | 4239 ft | 219 kts | 255° |
| 2026-04-23 19:46 | 59.81906 | 30.93717 | 3976 ft | 212 kts | 255° |
| 2026-04-23 19:46 | 59.81397 | 30.91028 | 3712 ft | 206 kts | 255° |
| 2026-04-23 19:46 | 59.80896 | 30.88383 | 3445 ft | 200 kts | 255° |
| 2026-04-23 19:47 | 59.80410 | 30.85824 | 3177 ft | 196 kts | 255° |
| 2026-04-23 19:47 | 59.79938 | 30.83335 | 2910 ft | 192 kts | 255° |
| 2026-04-23 19:47 | 59.79471 | 30.80876 | 2648 ft | 189 kts | 255° |
| 2026-04-23 19:47 | 59.79014 | 30.78479 | 2437 ft | 183 kts | 256° |
| 2026-04-23 19:48 | 59.78582 | 30.76208 | 2437 ft | 178 kts | 256° |
| 2026-04-23 19:48 | 59.78145 | 30.73917 | 2441 ft | 177 kts | 256° |
| 2026-04-23 19:48 | 59.77709 | 30.71634 | 2444 ft | 177 kts | 256° |
| 2026-04-23 19:48 | 59.77285 | 30.69414 | 2451 ft | 178 kts | 255° |
| 2026-04-23 19:49 | 59.76844 | 30.67108 | 2445 ft | 176 kts | 256° |
| 2026-04-23 19:49 | 59.76406 | 30.64825 | 2448 ft | 178 kts | 256° |
| 2026-04-23 19:49 | 59.75970 | 30.62549 | 2451 ft | 177 kts | 256° |
| 2026-04-23 19:49 | 59.75529 | 30.60255 | 2456 ft | 177 kts | 256° |
| 2026-04-23 19:50 | 59.75104 | 30.58054 | 2459 ft | 165 kts | 257° |
| 2026-04-23 19:50 | 59.74878 | 30.55954 | 2448 ft | 149 kts | 281° |
| 2026-04-23 19:50 | 59.75146 | 30.54052 | 2465 ft | 144 kts | 297° |
| 2026-04-23 19:50 | 59.75462 | 30.52158 | 2458 ft | 144 kts | 293° |
| 2026-04-23 19:51 | 59.75737 | 30.50238 | 2459 ft | 142 kts | 293° |
| 2026-04-23 19:51 | 59.76010 | 30.48382 | 2329 ft | 146 kts | 293° |
| 2026-04-23 19:51 | 59.76294 | 30.46466 | 2079 ft | 141 kts | 293° |
| 2026-04-23 19:51 | 59.76569 | 30.44612 | 1914 ft | 141 kts | 293° |
| 2026-04-23 19:52 | 59.76851 | 30.42745 | 1691 ft | 139 kts | 293° |
| 2026-04-23 19:52 | 59.77117 | 30.40967 | 1477 ft | 132 kts | 292° |
| 2026-04-23 19:52 | 59.77380 | 30.39216 | 1298 ft | 131 kts | 292° |
| 2026-04-23 19:52 | 59.77639 | 30.37496 | 1114 ft | 131 kts | 292° |
| 2026-04-23 19:53 | 59.77860 | 30.36027 | 954 ft | 131 kts | 291° |
| 2026-04-23 19:53 | 59.78120 | 30.34306 | 775 ft | 129 kts | 291° |
| 2026-04-23 19:53 | 59.78390 | 30.32574 | 594 ft | 132 kts | 290° |
| 2026-04-23 19:53 | 59.78649 | 30.30868 | 413 ft | 125 kts | 289° |
| 2026-04-23 19:54 | 59.78898 | 30.29187 | 249 ft | 128 kts | 289° |
| 2026-04-23 19:54 | 59.79145 | 30.27526 | 99 ft | 122 kts | 288° |
| 2026-04-23 19:54 | 59.79352 | 30.26141 | 84 ft | 73 kts | 285° |
| 2026-04-23 19:54 | 59.79431 | 30.25584 | 84 ft | 15 kts | 287° |
| 2026-04-23 19:55 | 59.79474 | 30.25497 | 84 ft | 5 kts | 5° |
| 2026-04-23 19:55 | 59.79494 | 30.25552 | 84 ft | 5 kts | 75° |
| 2026-04-23 19:55 | 59.79505 | 30.25634 | 84 ft | 6 kts | 75° |
| 2026-04-23 19:55 | 59.79517 | 30.25723 | 84 ft | 7 kts | 76° |
| 2026-04-23 19:56 | 59.79520 | 30.25754 | 84 ft | 3 kts | 76° |
| 2026-04-23 19:56 | 59.79533 | 30.25864 | 84 ft | 13 kts | 77° |
| 2026-04-23 19:56 | 59.79540 | 30.26057 | 84 ft | 15 kts | 92° |
| 2026-04-23 19:56 | 59.79520 | 30.26217 | 84 ft | 11 kts | 106° |
| 2026-04-23 19:57 | 59.79507 | 30.26337 | 84 ft | 5 kts | 64° |
| 2026-04-23 19:57 | 59.79548 | 30.26374 | 84 ft | 9 kts | 15° |
| 2026-04-23 19:57 | 59.79654 | 30.26434 | 84 ft | 15 kts | 16° |
| 2026-04-23 19:57 | 59.79729 | 30.26478 | 84 ft | 7 kts | 16° |
| 2026-04-23 19:58 | 59.79754 | 30.26498 | 84 ft | 3 kts | 47° |
| 2026-04-23 19:58 | 59.79755 | 30.26552 | 84 ft | 4 kts | 107° |
| 2026-04-23 19:58 | 59.79745 | 30.26611 | 84 ft | 1 kts | 106° |
| 2026-04-23 19:58 | 59.79745 | 30.26612 | 84 ft | 0 kts | 106° |